createdAt,value
2019-02-19T00:01:21.944Z,2.25
2019-02-19T00:03:50.393Z,3.37
2019-02-19T00:06:18.928Z,3.22
2019-02-19T00:08:47.367Z,3.65
2019-02-19T00:11:15.827Z,3.17
2019-02-19T00:13:44.268Z,1.27
2019-02-19T00:16:12.733Z,2.58
2019-02-19T00:18:41.174Z,2.00
2019-02-19T00:21:09.614Z,1.70
2019-02-19T00:23:38.155Z,3.15
2019-02-19T00:26:17.082Z,3.12
2019-02-19T00:28:45.540Z,5.37
2019-02-19T00:31:13.990Z,3.85
2019-02-19T00:33:42.528Z,2.22
2019-02-19T00:36:11.013Z,3.52
2019-02-19T00:38:39.496Z,3.83
2019-02-19T00:41:08.020Z,3.47
2019-02-19T00:43:36.463Z,3.25
2019-02-19T00:46:04.930Z,2.70
2019-02-19T00:48:33.372Z,3.08
2019-02-19T00:51:01.838Z,2.87
2019-02-19T00:53:30.350Z,3.90
2019-02-19T00:55:58.790Z,4.08
2019-02-19T00:58:27.259Z,2.92
2019-02-19T01:00:55.779Z,1.27
2019-02-19T01:03:24.257Z,2.62
2019-02-19T01:05:52.937Z,2.92
2019-02-19T01:08:21.475Z,1.75
2019-02-19T01:10:49.999Z,3.35
2019-02-19T01:13:18.434Z,3.10
2019-02-19T01:15:46.895Z,3.87
2019-02-19T01:18:15.354Z,2.65
2019-02-19T01:20:43.825Z,2.15
2019-02-19T01:23:12.403Z,3.30
2019-02-19T01:25:40.878Z,3.27
2019-02-19T01:28:09.442Z,4.03
2019-02-19T01:30:37.902Z,4.05
2019-02-19T01:33:06.432Z,2.67
2019-02-19T01:35:54.215Z,4.50
2019-02-19T01:38:22.690Z,2.60
2019-02-19T01:40:51.135Z,1.80
2019-02-19T01:43:19.674Z,6.08
2019-02-19T01:45:48.122Z,3.15
2019-02-19T01:48:16.567Z,1.70
2019-02-19T01:50:45.033Z,1.67
2019-02-19T01:53:13.588Z,1.85
2019-02-19T01:55:42.060Z,3.65
2019-02-19T01:58:10.503Z,4.92
2019-02-19T02:00:39.017Z,5.03
2019-02-19T02:03:07.550Z,3.12
2019-02-19T02:05:36.062Z,2.80
2019-02-19T02:08:04.530Z,3.37
2019-02-19T02:10:32.975Z,3.25
2019-02-19T02:13:01.409Z,5.17
2019-02-19T02:15:29.866Z,2.33
2019-02-19T02:17:58.379Z,1.50
2019-02-19T02:20:26.907Z,4.08
2019-02-19T02:22:55.349Z,2.42
2019-02-19T02:25:23.791Z,3.00
2019-02-19T02:27:52.265Z,3.37
2019-02-19T02:30:20.705Z,3.10
2019-02-19T02:32:49.165Z,1.52
2019-02-19T02:35:17.599Z,4.25
2019-02-19T02:37:46.038Z,1.35
2019-02-19T02:40:14.502Z,4.60
2019-02-19T02:42:42.944Z,3.37
2019-02-19T02:45:11.401Z,3.20
2019-02-19T02:47:39.875Z,2.25
2019-02-19T02:50:08.482Z,3.40
2019-02-19T02:52:36.919Z,4.45
2019-02-19T02:55:05.852Z,2.55
2019-02-19T02:57:34.311Z,2.40
2019-02-19T03:00:02.768Z,2.02
2019-02-19T03:02:31.370Z,2.75
2019-02-19T03:04:59.903Z,3.50
2019-02-19T03:10:13.038Z,1.25
2019-02-19T03:12:41.793Z,1.65
2019-02-19T03:15:10.880Z,2.83
2019-02-19T03:17:39.392Z,3.33
2019-02-19T03:20:08.424Z,2.25
2019-02-19T03:22:36.942Z,2.17
2019-02-19T03:25:05.851Z,2.10
2019-02-19T03:27:34.360Z,3.20
2019-02-19T03:30:03.175Z,2.58
2019-02-19T03:32:31.629Z,1.95
2019-02-19T03:35:00.456Z,1.32
2019-02-19T03:37:28.976Z,2.85
2019-02-19T03:39:57.520Z,2.20
2019-02-19T03:42:25.970Z,3.45
2019-02-19T03:44:54.416Z,3.17
2019-02-19T03:47:22.882Z,2.50
2019-02-19T03:49:51.332Z,3.27
2019-02-19T03:52:19.844Z,1.80
2019-02-19T03:54:48.438Z,3.12
2019-02-19T03:57:17.253Z,3.15
2019-02-19T03:59:45.852Z,2.72
2019-02-19T04:02:14.366Z,2.40
2019-02-19T04:04:42.828Z,3.52
2019-02-19T04:07:11.264Z,1.67
2019-02-19T04:09:59.067Z,2.80
2019-02-19T04:12:27.504Z,2.98
2019-02-19T04:15:15.320Z,1.52
2019-02-19T04:17:43.839Z,1.92
2019-02-19T04:20:12.379Z,2.62
2019-02-19T04:22:40.846Z,1.85
2019-02-19T04:25:09.427Z,1.70
2019-02-19T04:27:39.243Z,2.80
2019-02-19T04:30:09.451Z,2.30
2019-02-19T04:32:38.252Z,3.90
2019-02-19T04:35:06.999Z,2.67
2019-02-19T04:37:35.510Z,1.52
2019-02-19T04:40:05.844Z,1.35
2019-02-19T04:42:35.283Z,1.47
2019-02-19T04:45:05.186Z,1.02
2019-02-19T04:47:34.568Z,2.12
2019-02-19T04:50:03.108Z,1.57
2019-02-19T04:52:31.593Z,2.15
2019-02-19T04:55:00.291Z,1.52
2019-02-19T04:57:28.739Z,3.67
2019-02-19T04:59:57.178Z,1.60
2019-02-19T05:02:25.647Z,0.98
2019-02-19T05:04:54.170Z,1.55
2019-02-19T05:07:22.637Z,3.35
2019-02-19T05:09:51.086Z,2.10
2019-02-19T05:12:19.526Z,2.87
2019-02-19T05:14:47.994Z,0.95
2019-02-19T05:17:16.494Z,1.67
2019-02-19T05:19:45.085Z,4.20
2019-02-19T05:22:13.522Z,2.45
2019-02-19T05:24:41.993Z,1.22
2019-02-19T05:27:10.524Z,3.10
2019-02-19T05:29:38.966Z,3.22
2019-02-19T05:32:07.438Z,2.67
2019-02-19T05:34:35.884Z,3.70
2019-02-19T05:37:04.417Z,3.67
2019-02-19T05:39:32.859Z,4.62
2019-02-19T05:42:01.311Z,3.00
2019-02-19T05:44:29.946Z,3.40
2019-02-19T05:46:58.425Z,2.50
2019-02-19T05:49:26.954Z,2.98
2019-02-19T05:51:55.394Z,1.90
2019-02-19T05:54:23.842Z,3.08
2019-02-19T05:56:52.305Z,2.55
2019-02-19T05:59:20.751Z,2.58
2019-02-19T06:01:49.210Z,4.20
2019-02-19T06:04:20.050Z,2.90
2019-02-19T06:06:48.532Z,3.52
2019-02-19T06:09:16.976Z,5.15
2019-02-19T06:11:45.423Z,4.50
2019-02-19T06:14:13.959Z,3.05
2019-02-19T06:16:42.404Z,1.70
2019-02-19T06:19:10.875Z,1.95
2019-02-19T06:21:39.387Z,2.02
2019-02-19T06:24:07.924Z,1.45
2019-02-19T06:26:36.705Z,2.50
2019-02-19T06:29:05.306Z,3.92
2019-02-19T06:31:33.806Z,2.00
2019-02-19T06:34:02.246Z,2.92
2019-02-19T06:36:30.737Z,1.45
2019-02-19T06:38:59.251Z,1.52
2019-02-19T06:41:28.606Z,3.15
2019-02-19T06:43:57.047Z,2.33
2019-02-19T06:46:25.526Z,2.75
2019-02-19T06:48:54.003Z,1.20
2019-02-19T06:51:22.526Z,1.50
2019-02-19T06:53:50.968Z,1.90
2019-02-19T06:56:19.440Z,2.25
2019-02-19T06:59:07.286Z,3.50
2019-02-19T07:01:53.919Z,4.28
2019-02-19T07:04:26.975Z,4.45
2019-02-19T07:06:56.472Z,2.70
2019-02-19T07:09:24.964Z,2.50
2019-02-19T07:11:53.395Z,4.30
2019-02-19T07:14:21.918Z,2.70
2019-02-19T07:16:50.369Z,2.27
2019-02-19T07:19:18.902Z,6.55
2019-02-19T07:21:47.348Z,3.27
2019-02-19T07:24:15.790Z,1.98
2019-02-19T07:26:44.256Z,3.02
2019-02-19T07:29:12.731Z,2.20
2019-02-19T07:31:41.267Z,2.53
2019-02-19T07:34:09.707Z,3.00
2019-02-19T07:36:38.141Z,2.83
2019-02-19T07:39:06.668Z,3.10
2019-02-19T07:41:35.143Z,3.57
2019-02-19T07:44:04.582Z,2.33
2019-02-19T07:46:33.278Z,2.47
2019-02-19T07:49:01.784Z,3.60
2019-02-19T07:51:30.225Z,3.40
2019-02-19T07:54:00.749Z,2.73
2019-02-19T07:56:29.214Z,4.40
2019-02-19T07:58:57.655Z,3.57
2019-02-19T08:01:26.148Z,4.40
2019-02-19T08:03:55.324Z,3.50
2019-02-19T08:06:23.776Z,3.43
2019-02-19T08:08:52.242Z,3.67
2019-02-19T08:11:22.411Z,2.90
2019-02-19T08:13:53.729Z,2.93
2019-02-19T08:16:23.170Z,4.73
2019-02-19T08:18:52.128Z,4.10
2019-02-19T08:21:22.172Z,4.27
2019-02-19T08:23:52.737Z,2.50
2019-02-19T08:26:21.218Z,3.17
2019-02-19T08:28:49.710Z,6.07
2019-02-19T08:31:19.198Z,2.90
2019-02-19T08:33:49.496Z,3.77
2019-02-19T08:36:18.427Z,2.90
2019-02-19T08:38:48.005Z,2.07
2019-02-19T08:41:17.031Z,3.47
2019-02-19T08:43:46.315Z,2.93
2019-02-19T08:46:15.663Z,3.73
2019-02-19T08:48:44.245Z,3.90
2019-02-19T08:51:12.848Z,2.83
2019-02-19T08:53:41.314Z,3.03
2019-02-19T08:56:09.434Z,3.27
2019-02-19T08:58:37.559Z,5.07
2019-02-19T09:01:06.256Z,3.03
2019-02-19T09:03:34.703Z,3.00
2019-02-19T09:06:03.231Z,3.20
2019-02-19T09:08:32.107Z,3.43
2019-02-19T09:11:19.897Z,2.97
2019-02-19T09:13:48.385Z,2.87
2019-02-19T09:16:16.925Z,3.80
2019-02-19T09:18:45.384Z,3.40
2019-02-19T09:21:13.961Z,5.10
2019-02-19T09:23:42.488Z,5.03
2019-02-19T09:26:11.062Z,3.83
2019-02-19T09:28:39.522Z,3.97
2019-02-19T09:31:07.971Z,4.63
2019-02-19T09:33:36.443Z,5.53
2019-02-19T09:36:04.935Z,3.67
2019-02-19T09:38:33.375Z,4.80
2019-02-19T09:41:01.911Z,3.53
2019-02-19T09:43:35.509Z,3.93
2019-02-19T09:46:00.628Z,3.40
2019-02-19T09:48:29.068Z,4.53
2019-02-19T09:50:57.513Z,4.83
2019-02-19T09:53:26.044Z,4.27
2019-02-19T09:55:54.483Z,5.00
2019-02-19T09:58:22.947Z,4.80
2019-02-19T10:00:51.383Z,5.10
2019-02-19T10:03:19.911Z,3.37
2019-02-19T10:05:48.435Z,5.67
2019-02-19T10:08:17.176Z,5.43
2019-02-19T10:10:45.652Z,5.70
2019-02-19T10:13:14.178Z,4.93
2019-02-19T10:15:42.635Z,4.57
2019-02-19T10:18:11.076Z,3.90
2019-02-19T10:20:39.550Z,5.50
2019-02-19T10:23:07.988Z,4.43
2019-02-19T10:25:36.582Z,5.60
2019-02-19T10:28:05.310Z,4.77
2019-02-19T10:30:33.814Z,3.40
2019-02-19T10:33:02.278Z,4.70
2019-02-19T10:35:30.741Z,3.80
2019-02-19T10:37:59.270Z,3.80
2019-02-19T10:40:27.711Z,3.33
2019-02-19T10:42:56.176Z,3.03
2019-02-19T10:45:44.031Z,4.00
2019-02-19T10:48:18.784Z,2.70
2019-02-19T10:50:44.717Z,3.70
2019-02-19T10:53:16.211Z,3.50
2019-02-19T10:55:44.692Z,3.40
2019-02-19T10:58:13.146Z,2.90
2019-02-19T11:00:41.743Z,3.03
2019-02-19T11:03:10.212Z,4.60
2019-02-19T11:05:58.090Z,4.53
2019-02-19T11:08:29.251Z,3.27
2019-02-19T11:10:57.710Z,3.67
2019-02-19T11:13:29.935Z,3.33
2019-02-19T11:16:00.573Z,2.87
2019-02-19T11:18:29.311Z,3.67
2019-02-19T11:21:19.718Z,2.30
2019-02-19T11:24:07.391Z,3.23
2019-02-19T11:26:36.326Z,2.70
2019-02-19T11:29:05.935Z,2.50
2019-02-19T11:31:36.354Z,2.03
2019-02-19T11:34:04.823Z,2.90
2019-02-19T11:36:35.186Z,2.87
2019-02-19T11:39:16.311Z,2.60
2019-02-19T11:41:45.115Z,2.43
2019-02-19T11:44:13.605Z,3.80
2019-02-19T11:46:42.089Z,3.63
2019-02-19T11:49:10.535Z,4.53
2019-02-19T11:51:39.223Z,3.23
2019-02-19T11:54:07.719Z,3.50
2019-02-19T11:56:36.159Z,3.33
2019-02-19T11:59:04.794Z,3.60
2019-02-19T12:01:33.230Z,3.00
2019-02-19T12:04:01.690Z,3.93
2019-02-19T12:06:44.157Z,2.80
2019-02-19T12:09:00.513Z,3.57
2019-02-19T12:11:29.056Z,3.13
2019-02-19T12:13:57.491Z,2.73
2019-02-19T12:16:26.023Z,3.20
2019-02-19T12:18:54.540Z,2.93
2019-02-19T12:21:22.998Z,2.87
2019-02-19T12:23:51.438Z,3.00
2019-02-19T12:26:19.888Z,2.63
2019-02-19T12:28:48.342Z,3.23
2019-02-19T12:31:16.798Z,3.47
2019-02-19T12:33:45.323Z,3.10
2019-02-19T12:36:13.759Z,3.07
2019-02-19T12:38:42.219Z,2.57
2019-02-19T12:41:10.661Z,1.90
2019-02-19T12:43:58.458Z,2.37
2019-02-19T12:46:26.892Z,3.23
2019-02-19T12:48:55.331Z,3.27
2019-02-19T12:51:26.353Z,3.13
2019-02-19T12:53:53.970Z,2.50
2019-02-19T12:56:22.436Z,2.93
2019-02-19T12:58:50.884Z,2.97
2019-02-19T13:01:19.359Z,2.80
2019-02-19T13:03:47.799Z,2.93
2019-02-19T13:06:16.236Z,2.93
2019-02-19T13:08:44.692Z,3.27
2019-02-19T13:11:13.205Z,3.37
2019-02-19T13:13:41.741Z,3.53
2019-02-19T13:16:10.298Z,3.40
2019-02-19T13:18:38.827Z,3.00
2019-02-19T13:21:07.267Z,3.80
2019-02-19T13:23:35.771Z,3.60
2019-02-19T13:26:04.243Z,4.97
2019-02-19T13:28:32.738Z,4.33
2019-02-19T13:31:01.204Z,3.93
2019-02-19T13:33:29.632Z,2.83
2019-02-19T13:35:58.089Z,2.77
2019-02-19T13:38:26.522Z,3.40
2019-02-19T13:40:54.995Z,3.50
2019-02-19T13:43:23.429Z,3.43
2019-02-19T13:45:52.069Z,3.07
2019-02-19T13:48:20.538Z,3.30
2019-02-19T13:50:49.039Z,3.43
2019-02-19T13:53:19.740Z,3.17
2019-02-19T13:55:52.976Z,3.07
2019-02-19T13:58:22.992Z,3.70
2019-02-19T14:00:54.247Z,3.50
2019-02-19T14:03:25.040Z,2.70
2019-02-19T14:05:53.747Z,4.23
2019-02-19T14:08:22.364Z,3.47
2019-02-19T14:10:50.927Z,3.20
2019-02-19T14:13:19.656Z,4.10
2019-02-19T14:15:59.162Z,2.30
2019-02-19T14:18:45.546Z,2.43
2019-02-19T14:21:18.323Z,3.77
2019-02-19T14:23:48.387Z,3.13
2019-02-19T14:26:33.295Z,2.53
2019-02-19T14:29:21.303Z,4.10
2019-02-19T14:32:00.230Z,3.50
2019-02-19T14:34:39.152Z,2.97
2019-02-19T14:37:18.420Z,3.20
2019-02-19T14:39:54.282Z,3.17
2019-02-19T14:42:41.504Z,3.23
2019-02-19T14:48:33.021Z,3.97
2019-02-19T14:51:22.421Z,3.77
2019-02-19T14:53:51.334Z,4.00
2019-02-19T14:56:24.380Z,4.50
2019-02-19T14:59:06.622Z,3.27
2019-02-19T15:01:36.701Z,3.43
2019-02-19T15:04:23.201Z,5.07
2019-02-19T15:07:09.747Z,3.83
2019-02-19T15:09:56.187Z,4.23
2019-02-19T15:12:29.251Z,4.00
2019-02-19T15:14:59.400Z,4.30
2019-02-19T15:17:29.557Z,4.23
2019-02-19T15:20:15.630Z,3.80
2019-02-19T15:23:01.427Z,3.83
2019-02-19T15:25:46.571Z,3.50
2019-02-19T15:28:32.498Z,3.30
2019-02-19T15:31:18.986Z,4.07
2019-02-19T15:33:49.095Z,3.50
2019-02-19T15:36:31.023Z,4.10
2019-02-19T15:39:06.668Z,3.20
2019-02-19T15:41:36.821Z,4.13
2019-02-19T15:44:18.448Z,4.73
2019-02-19T15:46:54.547Z,4.50
2019-02-19T15:49:47.643Z,3.97
2019-02-19T15:52:25.029Z,3.50
2019-02-19T15:54:55.141Z,4.10
2019-02-19T15:57:27.845Z,3.80
2019-02-19T16:00:23.486Z,4.03
2019-02-19T16:02:53.571Z,4.23
2019-02-19T16:05:23.637Z,3.87
2019-02-19T16:10:29.061Z,6.27
2019-02-19T16:13:14.071Z,4.47
2019-02-19T16:15:44.159Z,2.30
2019-02-19T16:18:29.409Z,6.00
2019-02-19T16:21:15.474Z,4.90
2019-02-19T16:24:03.991Z,5.07
2019-02-19T16:26:49.124Z,6.07
2019-02-19T16:29:28.314Z,5.57
2019-02-19T16:32:01.522Z,6.30
2019-02-19T16:34:48.115Z,4.90
2019-02-19T16:37:18.269Z,4.73
2019-02-19T16:39:48.371Z,3.80
2019-02-19T16:42:24.212Z,3.20
2019-02-19T16:45:06.399Z,4.87
2019-02-19T16:47:48.595Z,3.83
2019-02-19T16:50:34.932Z,3.90
2019-02-19T16:53:05.094Z,4.67
2019-02-19T16:55:35.247Z,3.73
2019-02-19T16:58:05.350Z,4.53
2019-02-19T17:00:35.437Z,3.83
2019-02-19T17:03:23.741Z,4.70
2019-02-19T17:05:56.898Z,3.20
2019-02-19T17:08:30.231Z,4.13
2019-02-19T17:11:16.495Z,4.63
2019-02-19T17:13:46.602Z,3.87
2019-02-19T17:16:16.763Z,3.90
2019-02-19T17:18:58.611Z,3.80
2019-02-19T17:21:28.759Z,4.07
2019-02-19T17:24:04.900Z,3.90
2019-02-19T17:29:40.804Z,4.47
2019-02-19T17:32:20.266Z,4.47
2019-02-19T17:35:08.252Z,3.23
2019-02-19T17:37:53.442Z,3.87
2019-02-19T17:40:26.459Z,4.77
2019-02-19T17:42:56.539Z,4.60
2019-02-19T17:45:26.790Z,4.13
2019-02-19T17:48:16.301Z,14.87
2019-02-19T17:50:55.741Z,7.93
2019-02-19T17:53:25.921Z,3.27
2019-02-19T17:56:07.601Z,4.10
2019-02-19T17:58:53.547Z,3.40
2019-02-19T18:01:32.384Z,6.80
2019-02-19T18:04:18.761Z,4.07
2019-02-19T18:06:54.575Z,4.97
2019-02-19T18:09:42.626Z,5.27
2019-02-19T18:12:12.707Z,8.57
2019-02-19T18:17:30.264Z,5.97
2019-02-19T18:19:58.726Z,3.73
2019-02-19T18:22:27.489Z,4.60
2019-02-19T18:24:56.009Z,3.80
2019-02-19T18:27:24.524Z,4.80
2019-02-19T18:29:52.952Z,4.57
2019-02-19T18:32:21.478Z,3.33
2019-02-19T18:34:50.097Z,6.70
2019-02-19T18:37:18.587Z,5.10
2019-02-19T18:39:47.103Z,4.73
2019-02-19T18:42:15.598Z,5.13
2019-02-19T18:44:45.357Z,5.53
2019-02-19T18:47:14.243Z,4.63
2019-02-19T18:49:42.864Z,5.10
2019-02-19T18:52:11.380Z,5.63
2019-02-19T18:54:39.884Z,4.53
2019-02-19T18:57:08.424Z,6.33
2019-02-19T18:59:36.946Z,5.50
2019-02-19T19:02:05.469Z,6.23
2019-02-19T19:04:33.903Z,5.23
2019-02-19T19:07:02.362Z,3.93
2019-02-19T19:09:30.807Z,5.57
2019-02-19T19:11:59.272Z,4.17
2019-02-19T19:14:27.789Z,5.20
2019-02-19T19:16:56.254Z,6.57
2019-02-19T19:19:24.699Z,5.17
2019-02-19T19:21:53.133Z,5.63
2019-02-19T19:24:21.711Z,3.97
2019-02-19T19:26:50.145Z,6.37
2019-02-19T19:29:37.950Z,9.30
2019-02-19T19:32:06.388Z,7.00
2019-02-19T19:34:54.194Z,12.63
2019-02-19T19:37:22.882Z,5.17
2019-02-19T19:39:51.411Z,6.03
2019-02-19T19:42:20.375Z,7.67
2019-02-19T19:44:48.890Z,6.97
2019-02-19T19:47:17.481Z,6.93
2019-02-19T19:49:45.922Z,8.00
2019-02-19T19:52:14.396Z,6.27
2019-02-19T19:54:42.831Z,7.50
2019-02-19T19:57:11.280Z,7.83
2019-02-19T19:59:39.819Z,10.00
2019-02-19T20:02:08.276Z,3.93
2019-02-19T20:04:36.806Z,6.27
2019-02-19T20:07:05.321Z,8.63
2019-02-19T20:09:33.862Z,5.93
2019-02-19T20:12:02.306Z,4.70
2019-02-19T20:14:30.758Z,6.10
2019-02-19T20:16:59.276Z,3.63
2019-02-19T20:19:27.745Z,6.27
2019-02-19T20:21:56.249Z,6.40
2019-02-19T20:24:24.912Z,7.10
2019-02-19T20:26:53.402Z,7.30
2019-02-19T20:29:21.883Z,7.03
2019-02-19T20:31:50.338Z,9.33
2019-02-19T20:34:18.782Z,8.53
2019-02-19T20:36:47.249Z,8.13
2019-02-19T20:39:15.772Z,4.17
2019-02-19T20:41:44.313Z,5.40
2019-02-19T20:44:12.758Z,8.57
2019-02-19T20:46:41.299Z,6.27
2019-02-19T20:49:09.778Z,4.77
2019-02-19T20:51:38.246Z,7.50
2019-02-19T20:54:06.810Z,4.80
2019-02-19T20:56:35.538Z,9.50
2019-02-19T20:59:03.656Z,5.80
2019-02-19T21:01:32.191Z,10.70
2019-02-19T21:04:00.636Z,12.00
2019-02-19T21:06:29.116Z,5.78
2019-02-19T21:08:57.568Z,5.37
2019-02-19T21:11:27.638Z,7.62
2019-02-19T21:13:56.330Z,6.80
2019-02-19T21:16:24.779Z,5.72
2019-02-19T21:18:53.313Z,3.93
2019-02-19T21:21:21.774Z,5.80
2019-02-19T21:23:50.459Z,7.67
2019-02-19T21:26:18.911Z,9.48
2019-02-19T21:28:47.371Z,8.40
2019-02-19T21:31:15.900Z,7.40
2019-02-19T21:33:44.350Z,4.83
2019-02-19T21:36:12.890Z,8.65
2019-02-19T21:38:41.339Z,6.87
2019-02-19T21:41:09.816Z,5.95
2019-02-19T21:43:38.332Z,5.05
2019-02-19T21:46:06.805Z,2.22
2019-02-19T21:48:35.328Z,6.50
2019-02-19T21:51:03.851Z,6.30
2019-02-19T21:53:32.308Z,3.57
2019-02-19T21:56:00.750Z,4.10
2019-02-19T21:58:29.299Z,5.40
2019-02-19T22:00:57.818Z,6.50
2019-02-19T22:03:26.286Z,8.05
2019-02-19T22:05:54.730Z,7.35
2019-02-19T22:08:23.180Z,5.67
2019-02-19T22:10:51.742Z,5.03
2019-02-19T22:13:20.192Z,8.40
2019-02-19T22:15:48.670Z,6.70
2019-02-19T22:18:17.110Z,4.08
2019-02-19T22:20:50.160Z,6.80
2019-02-19T22:23:18.679Z,6.87
2019-02-19T22:25:47.195Z,5.42
2019-02-19T22:28:15.691Z,8.80
2019-02-19T22:30:44.139Z,7.20
2019-02-19T22:33:12.611Z,6.67
2019-02-19T22:35:41.159Z,5.28
2019-02-19T22:38:28.958Z,4.15
2019-02-19T22:40:57.407Z,3.65
2019-02-19T22:43:25.849Z,5.37
2019-02-19T22:45:54.322Z,3.77
2019-02-19T22:48:22.779Z,4.80
2019-02-19T22:50:51.339Z,3.55
2019-02-19T22:53:37.814Z,4.53
2019-02-19T22:56:07.931Z,5.28
2019-02-19T22:58:36.384Z,7.17
2019-02-19T23:01:15.877Z,4.87
2019-02-19T23:03:44.527Z,5.45
2019-02-19T23:06:13.216Z,5.80
2019-02-19T23:08:41.679Z,5.72
2019-02-19T23:11:10.131Z,4.87
2019-02-19T23:13:38.693Z,6.28
2019-02-19T23:16:07.190Z,4.92
2019-02-19T23:18:35.661Z,5.80
2019-02-19T23:21:04.254Z,5.33
2019-02-19T23:23:33.071Z,5.08
2019-02-19T23:26:01.548Z,3.60
2019-02-19T23:28:30.086Z,1.60
2019-02-19T23:30:58.616Z,3.83
2019-02-19T23:33:27.147Z,7.12
2019-02-19T23:35:57.259Z,4.20
2019-02-19T23:38:25.790Z,4.55
2019-02-19T23:40:54.318Z,3.52
2019-02-19T23:43:22.856Z,6.28
2019-02-19T23:45:51.774Z,5.62
2019-02-19T23:48:28.006Z,3.80
2019-02-19T23:50:56.454Z,5.70
2019-02-19T23:53:24.950Z,4.45
2019-02-19T23:55:53.417Z,4.45
2019-02-19T23:58:22.311Z,6.65
